M I D A S
Marine Information and Data Acquisition System
Tripno 366 of the Zeeleeuw from 2002-11-27 07:43:24 to 2002-11-27 13:54:14
Back to CruiseResearch ActivitiesStationsMapUnderway DataData graphs

EquipmentUnitsComment
TimeDGPSUTC
LatitudeDGPSDM.mWGS84
LongitudeDGPSDM.mWGS84
HeadingGyrodeg 
SOGDGPSknotsSpeed over ground
COGDGPSdegCourse over ground
DepthEcho soundermeters200 kHz
Missing or incorrect values are displayed as -999
Navigation data collected by the RV Zeeleeuw from 2002-11-27 07:43:24 to 2002-11-27 13:54:14
                                                                                    Next 1000 lines
Time Latitude Longitude Heading SOG COG Depth
2002-11-27 07:43:34 51°13.587 2°56.13 115.8 0.2 299.7 8.5
2002-11-27 07:43:39 51°13.587 2°56.129 115.5 0.5 298.9 8.4
2002-11-27 07:43:43 51°13.588 2°56.127 115.3 0.7 296.7 8.3
2002-11-27 07:43:48 51°13.589 2°56.125 115.5 0.9 297.4 7.9
2002-11-27 07:43:54 51°13.589 2°56.122 115.7 1.1 297.1 8
2002-11-27 07:43:58 51°13.59 2°56.12 115.7 1.3 296.7 7.3
2002-11-27 07:44:04 51°13.591 2°56.116 115.3 1.5 295 -999
2002-11-27 07:44:10 51°13.593 2°56.111 115.2 1.7 294.7 -999
2002-11-27 07:44:14 51°13.594 2°56.108 114.8 1.9 295.5 -999
2002-11-27 07:44:20 51°13.595 2°56.103 114.5 2 295.5 -999
2002-11-27 07:44:24 51°13.596 2°56.099 114.2 2.2 295 -999
2002-11-27 07:44:28 51°13.597 2°56.095 113.7 2.3 294.5 -999
2002-11-27 07:44:34 51°13.599 2°56.089 113 2.5 294.4 -999
2002-11-27 07:44:39 51°13.6 2°56.084 112.3 2.5 293.4 -999
2002-11-27 07:44:44 51°13.602 2°56.079 111.5 2.5 291.3 -999
2002-11-27 07:44:48 51°13.603 2°56.074 110.7 2.5 290.9 -999
2002-11-27 07:44:54 51°13.604 2°56.069 109.5 2.4 290.8 -999
2002-11-27 07:44:59 51°13.605 2°56.065 109 2.1 291.2 9.8
2002-11-27 07:45:04 51°13.605 2°56.061 108.5 2 290.5 9.7
2002-11-27 07:45:08 51°13.606 2°56.059 108.3 1.5 290.3 9.6
2002-11-27 07:45:12 51°13.607 2°56.057 108.7 1.4 291.4 9.9
2002-11-27 07:45:18 51°13.607 2°56.055 109.5 0.9 297.4 9.6
2002-11-27 07:45:24 51°13.608 2°56.055 111.2 0.7 304.1 9.9
2002-11-27 07:45:28 51°13.608 2°56.054 113.2 0.4 316.2 9.9
2002-11-27 07:45:33 51°13.608 2°56.054 114.8 0.3 316.6 10
2002-11-27 07:45:38 51°13.609 2°56.053 115.8 0.3 311.1 9.8
2002-11-27 07:45:43 51°13.609 2°56.052 116.5 0.5 309.1 9.6
2002-11-27 07:45:48 51°13.61 2°56.051 117.2 0.7 303 9.6
2002-11-27 07:45:54 51°13.61 2°56.049 117.8 0.8 301.8 9.5
2002-11-27 07:45:59 51°13.611 2°56.046 118.3 1 297.7 10
2002-11-27 07:46:04 51°13.612 2°56.044 118.8 1.1 297.6 10.4
2002-11-27 07:46:08 51°13.613 2°56.041 119 1.3 295 10.3
2002-11-27 07:46:14 51°13.614 2°56.037 119.5 1.6 295.7 -999
2002-11-27 07:46:19 51°13.615 2°56.033 120 1.8 296.5 -999
2002-11-27 07:46:24 51°13.616 2°56.029 120.7 2 297.4 -999
2002-11-27 07:46:30 51°13.618 2°56.024 121.2 2.2 297.4 -999
2002-11-27 07:46:34 51°13.619 2°56.02 121.7 2.4 297.1 -999
2002-11-27 07:46:39 51°13.621 2°56.015 122.3 2.5 296.9 -999
2002-11-27 07:46:44 51°13.622 2°56.01 122.8 2.6 297.3 -999
2002-11-27 07:46:48 51°13.624 2°56.005 123.3 2.7 297.7 -999
2002-11-27 07:46:54 51°13.626 2°55.998 123.8 2.9 298.7 -999
2002-11-27 07:46:59 51°13.628 2°55.993 124 3 299.2 -999
2002-11-27 07:47:04 51°13.631 2°55.986 124.3 3.1 300.1 -999
2002-11-27 07:47:09 51°13.633 2°55.98 124.7 3.3 300.6 -999
2002-11-27 07:47:14 51°13.635 2°55.974 125 3.3 300.6 -999
2002-11-27 07:47:19 51°13.638 2°55.967 125 3.4 300.6 -999
2002-11-27 07:47:24 51°13.64 2°55.961 125 3.5 301.6 -999
2002-11-27 07:47:30 51°13.643 2°55.952 125 3.6 301.4 -999
2002-11-27 07:47:34 51°13.645 2°55.947 124.8 3.7 301.1 -999
2002-11-27 07:47:39 51°13.648 2°55.939 124.3 3.7 300.7 -999
2002-11-27 07:47:44 51°13.651 2°55.932 124 3.8 300.4 -999
2002-11-27 07:47:50 51°13.654 2°55.923 123.7 3.9 300.1 -999
2002-11-27 07:47:55 51°13.657 2°55.916 123 3.9 299.9 -999
2002-11-27 07:47:59 51°13.659 2°55.909 122.3 3.9 299.5 -999
2002-11-27 07:48:05 51°13.662 2°55.9 121.3 3.9 299 -999
2002-11-27 07:48:08 51°13.664 2°55.896 120 3.9 298.4 -999
2002-11-27 07:48:15 51°13.667 2°55.885 118.5 3.8 297 -999
2002-11-27 07:48:19 51°13.669 2°55.879 116.7 3.9 296.1 -999
2002-11-27 07:48:24 51°13.671 2°55.871 115 3.8 294.5 -999
2002-11-27 07:48:30 51°13.673 2°55.862 113.5 3.8 293 -999
2002-11-27 07:48:35 51°13.675 2°55.854 111.8 3.7 290.9 -999
2002-11-27 07:48:40 51°13.677 2°55.846 110.3 3.7 289.8 -999
2002-11-27 07:48:44 51°13.678 2°55.84 108.5 3.7 288.1 -999
2002-11-27 07:48:50 51°13.679 2°55.831 107 3.6 286.5 -999
2002-11-27 07:48:55 51°13.681 2°55.823 105.2 3.6 285.1 -999
2002-11-27 07:48:59 51°13.682 2°55.817 103.8 3.6 284.1 -999
2002-11-27 07:49:05 51°13.683 2°55.807 102.5 3.6 282.5 -999
2002-11-27 07:49:08 51°13.683 2°55.803 101.5 3.6 281.6 -999
2002-11-27 07:49:15 51°13.685 2°55.792 100.3 3.6 281.1 -999
2002-11-27 07:49:19 51°13.685 2°55.785 99.2 3.7 280.5 -999
2002-11-27 07:49:24 51°13.686 2°55.777 97.7 3.7 279.1 -999
2002-11-27 07:49:30 51°13.686 2°55.768 95.8 3.6 277.4 -999
2002-11-27 07:49:35 51°13.687 2°55.76 93.7 3.5 275.8 -999
2002-11-27 07:49:39 51°13.687 2°55.754 91.2 3.4 275.1 -999
2002-11-27 07:49:44 51°13.687 2°55.747 88.7 3.3 273.1 13.5
2002-11-27 07:49:50 51°13.687 2°55.74 86.2 3 270.4 13.5
2002-11-27 07:49:54 51°13.687 2°55.736 83.5 2.8 268.7 14
2002-11-27 07:49:59 51°13.687 2°55.731 80.8 2.3 266.2 14.6
2002-11-27 07:50:04 51°13.686 2°55.729 77.8 1.9 265.2 14.4
2002-11-27 07:50:08 51°13.686 2°55.727 74.7 1.3 264.6 14.4
2002-11-27 07:50:14 51°13.686 2°55.725 70.5 0.9 265.4 14.4
2002-11-27 07:50:19 51°13.687 2°55.725 66.5 0.5 277.1 14.3
2002-11-27 07:50:24 51°13.687 2°55.725 61.7 0.2 317.2 14.1
2002-11-27 07:50:29 51°13.688 2°55.725 56.8 0.4 12.4 14.1
2002-11-27 07:50:34 51°13.689 2°55.726 51.5 0.6 24.8 13.3
2002-11-27 07:50:39 51°13.691 2°55.727 46.5 0.9 26.3 12.8
2002-11-27 07:50:44 51°13.692 2°55.728 40.7 1.1 25.8 12.8
2002-11-27 07:50:48 51°13.694 2°55.729 35.2 1.4 22.6 12.6
2002-11-27 07:50:53 51°13.696 2°55.73 29.5 1.6 20.4 13.5
2002-11-27 07:50:59 51°13.699 2°55.731 24.7 1.8 16.3 14.1
2002-11-27 07:51:04 51°13.703 2°55.732 18.5 2 12.6 13.9
2002-11-27 07:51:08 51°13.705 2°55.732 12.7 2.4 5.1 12.8
2002-11-27 07:51:14 51°13.71 2°55.732 6.2 2.6 0.8 12.5
2002-11-27 07:51:19 51°13.714 2°55.73 359.8 3 354.1 12.1
2002-11-27 07:51:24 51°13.719 2°55.728 354 3.2 349.8 11.6
2002-11-27 07:51:28 51°13.723 2°55.726 348.8 3.6 343.7 11.2
2002-11-27 07:51:34 51°13.729 2°55.722 344 3.9 338.7 10.7
2002-11-27 07:51:39 51°13.734 2°55.717 340.8 4.2 334.7 10.9
2002-11-27 07:51:44 51°13.74 2°55.712 338.8 4.4 332.5 10.9
2002-11-27 07:51:48 51°13.745 2°55.708 338.2 4.8 331.4 10.8
2002-11-27 07:51:52 51°13.75 2°55.704 338.2 5 331.4 10.8
2002-11-27 07:51:59 51°13.759 2°55.695 338.7 5.3 331.8 10.8
2002-11-27 07:52:04 51°13.766 2°55.689 339.2 5.5 332.1 10.8
2002-11-27 07:52:08 51°13.772 2°55.685 339.5 5.7 332.2 10.6
2002-11-27 07:52:14 51°13.781 2°55.677 339.8 6 332.6 10.8
2002-11-27 07:52:19 51°13.789 2°55.671 339.8 6.3 333.2 11
2002-11-27 07:52:24 51°13.797 2°55.664 339.8 6.5 333.7 10.8
2002-11-27 07:52:28 51°13.804 2°55.659 340.7 6.7 334.2 11.1
2002-11-27 07:52:33 51°13.813 2°55.652 342.2 6.9 335 10.7
2002-11-27 07:52:39 51°13.824 2°55.645 343.2 7.1 336.2 11.4
2002-11-27 07:52:44 51°13.833 2°55.639 343.3 7.2 336.7 11.1
2002-11-27 07:52:48 51°13.841 2°55.634 343.7 7.3 337.3 11.1
2002-11-27 07:52:54 51°13.853 2°55.627 344.3 7.4 337.6 11
2002-11-27 07:52:59 51°13.863 2°55.621 345 7.7 339 10.8
2002-11-27 07:53:04 51°13.873 2°55.614 345.7 7.9 339.7 10.8
2002-11-27 07:53:08 51°13.882 2°55.61 346.3 8 340.3 10.8
2002-11-27 07:53:14 51°13.895 2°55.603 346.8 8.1 340.7 11.1
2002-11-27 07:53:19 51°13.905 2°55.597 346.8 8.2 341.3 11
2002-11-27 07:53:24 51°13.916 2°55.592 347.3 8.2 341.7 11
2002-11-27 07:53:28 51°13.925 2°55.587 347.2 8.3 341.7 10.8
2002-11-27 07:53:34 51°13.938 2°55.579 347 8.4 341.1 10.8
2002-11-27 07:53:39 51°13.949 2°55.573 347 8.5 341.1 11.1
2002-11-27 07:53:44 51°13.961 2°55.567 346.5 8.5 340.4 11.5
2002-11-27 07:53:48 51°13.969 2°55.562 346.2 8.6 340 11.2
2002-11-27 07:53:54 51°13.983 2°55.554 346.3 8.6 340 11.3
2002-11-27 07:53:59 51°13.994 2°55.547 346.3 8.7 339.8 11.2
2002-11-27 07:54:04 51°14.005 2°55.541 346.2 8.7 340 -999
2002-11-27 07:54:08 51°14.014 2°55.535 345.7 8.7 339.8 10.5
2002-11-27 07:54:14 51°14.028 2°55.527 344.7 8.7 339 10.6
2002-11-27 07:54:19 51°14.039 2°55.519 343.5 8.8 337.5 10.1
2002-11-27 07:54:24 51°14.05 2°55.511 342 8.8 336.4 10.4
2002-11-27 07:54:29 51°14.061 2°55.502 340.2 8.8 334.5 10.2
2002-11-27 07:54:34 51°14.071 2°55.493 338.3 8.7 332.8 10.4
2002-11-27 07:54:39 51°14.082 2°55.483 337 8.8 330.9 10.2
2002-11-27 07:54:44 51°14.093 2°55.473 336.7 8.8 330.1 10.3
2002-11-27 07:54:48 51°14.101 2°55.465 336.3 8.8 329.7 9.9
2002-11-27 07:54:54 51°14.114 2°55.453 335.3 8.8 329 10
2002-11-27 07:54:59 51°14.125 2°55.443 334.7 8.9 329 10.2
2002-11-27 07:55:04 51°14.135 2°55.432 334.8 9 328.9 10.1
2002-11-27 07:55:08 51°14.144 2°55.424 335 9.1 328.7 10.2
2002-11-27 07:55:14 51°14.157 2°55.411 333.3 9.2 328.4 10.5
2002-11-27 07:55:18 51°14.165 2°55.402 331.5 9.3 326.8 10.3
2002-11-27 07:55:24 51°14.178 2°55.387 330.5 9.3 325.5 10.7
2002-11-27 07:55:28 51°14.187 2°55.377 329.8 9.4 324.4 10.5
2002-11-27 07:55:34 51°14.199 2°55.362 328.5 9.4 323.9 10.7
2002-11-27 07:55:39 51°14.209 2°55.349 326.8 9.5 321.9 10.7
2002-11-27 07:55:44 51°14.219 2°55.335 325.5 9.5 320.7 10.5
2002-11-27 07:55:48 51°14.227 2°55.323 324.5 9.5 319.2 10.7
2002-11-27 07:55:52 51°14.235 2°55.312 322.7 9.6 317.6 10.6
2002-11-27 07:55:59 51°14.248 2°55.291 321.3 9.7 316.2 10
2002-11-27 07:56:04 51°14.257 2°55.275 320.5 9.7 314.9 10.7
2002-11-27 07:56:08 51°14.265 2°55.263 320.3 9.7 314.2 10.4
2002-11-27 07:56:14 51°14.276 2°55.244 319.7 9.7 314.1 10.5
2002-11-27 07:56:19 51°14.285 2°55.229 318.7 9.8 313.4 10.6
2002-11-27 07:56:24 51°14.294 2°55.212 317.8 9.8 312.7 10.5
2002-11-27 07:56:29 51°14.303 2°55.196 317.5 9.8 311.6 10.7
2002-11-27 07:56:34 51°14.312 2°55.179 316.3 9.8 311 10.6
2002-11-27 07:56:39 51°14.321 2°55.162 314.8 10 309.3 10.4
2002-11-27 07:56:44 51°14.33 2°55.144 314.3 10.1 308.7 10.6
2002-11-27 07:56:48 51°14.337 2°55.13 315.2 10.2 309.1 10.5
2002-11-27 07:56:54 51°14.348 2°55.109 316.5 10.3 310.1 10.2
2002-11-27 07:56:59 51°14.357 2°55.092 318 10.3 311.1 10.7
2002-11-27 07:57:04 51°14.367 2°55.076 320 10.3 312 11
2002-11-27 07:57:08 51°14.376 2°55.063 321.7 10.4 313 11.2
2002-11-27 07:57:14 51°14.389 2°55.044 324 10.4 315.5 11.1
2002-11-27 07:57:19 51°14.4 2°55.029 326.5 10.6 318.8 10.7
2002-11-27 07:57:24 51°14.413 2°55.015 329.2 10.8 321.6 10.8
2002-11-27 07:57:28 51°14.423 2°55.003 331.5 11.1 324 10.5
2002-11-27 07:57:34 51°14.439 2°54.987 333.5 11.3 325.7 10.1
2002-11-27 07:57:39 51°14.453 2°54.973 334.8 11.6 327.8 10.4
2002-11-27 07:57:44 51°14.467 2°54.96 336.5 11.8 329.2 10.5
2002-11-27 07:57:48 51°14.479 2°54.95 337.3 11.9 330.4 10.2
2002-11-27 07:57:54 51°14.496 2°54.934 337.2 12 330.6 10
2002-11-27 07:57:59 51°14.511 2°54.921 337.5 12.1 330.8 10.2
2002-11-27 07:58:04 51°14.526 2°54.908 337.2 12.3 330.8 10.1
2002-11-27 07:58:08 51°14.538 2°54.897 337 12.4 330.8 10
2002-11-27 07:58:14 51°14.557 2°54.88 336.7 12.6 330.4 10.2
2002-11-27 07:58:19 51°14.572 2°54.866 336.5 12.7 330.2 9.9
2002-11-27 07:58:24 51°14.587 2°54.852 336.5 12.7 330 10
2002-11-27 07:58:28 51°14.599 2°54.841 336.7 12.8 329.8 10
2002-11-27 07:58:34 51°14.618 2°54.824 336.5 12.8 329.8 10.1
2002-11-27 07:58:39 51°14.634 2°54.81 336.3 12.9 330 9.8
2002-11-27 07:58:44 51°14.65 2°54.796 336.2 13 330 10
2002-11-27 07:58:48 51°14.662 2°54.784 336 13 329.8 9.7
2002-11-27 07:58:54 51°14.681 2°54.767 336 13 329.7 10
2002-11-27 07:58:59 51°14.696 2°54.752 335.8 13 329.5 9.7
2002-11-27 07:59:04 51°14.712 2°54.738 335.8 13 329.6 9.9
2002-11-27 07:59:08 51°14.724 2°54.726 336.2 13 329.6 10
2002-11-27 07:59:14 51°14.744 2°54.709 336.5 13 330 10
2002-11-27 07:59:19 51°14.76 2°54.696 336.7 13 330.3 10
2002-11-27 07:59:24 51°14.775 2°54.681 337 13 330.7 9.5
2002-11-27 07:59:28 51°14.788 2°54.67 337.2 13.1 331 9.9
2002-11-27 07:59:33 51°14.804 2°54.656 337.3 13.2 331.3 9.9
2002-11-27 07:59:39 51°14.824 2°54.639 337 13.3 331.4 9.8
2002-11-27 07:59:44 51°14.84 2°54.625 336.8 13.4 331.3 9.9
2002-11-27 07:59:48 51°14.853 2°54.613 336.5 13.5 331 9.9
2002-11-27 07:59:54 51°14.873 2°54.596 336.5 13.5 330.8 9.8
2002-11-27 07:59:59 51°14.889 2°54.581 336.3 13.6 331 9.9
2002-11-27 08:00:04 51°14.905 2°54.566 337 13.6 331.3 9.6
2002-11-27 08:00:08 51°14.919 2°54.555 336.8 13.6 331.6 9.6
2002-11-27 08:00:14 51°14.938 2°54.537 336.8 13.6 331.5 9.2
2002-11-27 08:00:19 51°14.955 2°54.522 336.5 13.6 330.9 9.3
2002-11-27 08:00:24 51°14.971 2°54.508 336 13.6 330.6 9.1
2002-11-27 08:00:28 51°14.984 2°54.496 336 13.5 330.3 9.2
2002-11-27 08:00:34 51°15.004 2°54.478 336.2 13.5 330.4 8.5
2002-11-27 08:00:39 51°15.02 2°54.463 336 13.5 330.2 9
2002-11-27 08:00:44 51°15.036 2°54.449 336.3 13.5 330.3 8.9
2002-11-27 08:00:48 51°15.049 2°54.437 336.7 13.5 330.7 8.8
2002-11-27 08:00:54 51°15.069 2°54.42 337 13.6 331.3 9
2002-11-27 08:00:59 51°15.085 2°54.405 337.3 13.6 331.5 8.9
2002-11-27 08:01:03 51°15.098 2°54.394 337.2 13.6 331.5 8.9
2002-11-27 08:01:08 51°15.115 2°54.379 337.3 13.6 331.4 9.1
2002-11-27 08:01:14 51°15.135 2°54.362 337.2 13.6 331.2 9.2
2002-11-27 08:01:19 51°15.151 2°54.347 336.7 13.7 330.9 8.9
2002-11-27 08:01:24 51°15.168 2°54.332 336.7 13.7 330.5 9.2
2002-11-27 08:01:28 51°15.181 2°54.32 336.7 13.7 330.4 9.3
2002-11-27 08:01:34 51°15.201 2°54.302 336.7 13.7 330.4 9.2
2002-11-27 08:01:39 51°15.218 2°54.288 336.8 13.7 330.3 9.1
2002-11-27 08:01:44 51°15.234 2°54.273 337.2 13.7 330.5 9.2
2002-11-27 08:01:48 51°15.247 2°54.261 337.5 13.7 330.8 9.5
2002-11-27 08:01:54 51°15.267 2°54.243 337.3 13.7 330.7 9.3
2002-11-27 08:01:59 51°15.285 2°54.228 337 13.8 330.9 9.6
2002-11-27 08:02:04 51°15.301 2°54.213 336.8 13.9 330.8 9.6
2002-11-27 08:02:08 51°15.314 2°54.201 337 13.9 330.5 9.8
2002-11-27 08:02:14 51°15.334 2°54.182 336.8 13.9 330.4 9.5
2002-11-27 08:02:19 51°15.351 2°54.167 337.2 13.9 330.4 9.9
2002-11-27 08:02:24 51°15.368 2°54.152 337.3 13.9 330.4 9.9
2002-11-27 08:02:28 51°15.382 2°54.14 337.5 13.9 330.9 9.9
2002-11-27 08:02:34 51°15.402 2°54.122 337.7 13.9 331.1 10.1
2002-11-27 08:02:38 51°15.416 2°54.11 337.3 14 330.9 10
2002-11-27 08:02:44 51°15.436 2°54.092 337.2 14 330.6 10.1
2002-11-27 08:02:48 51°15.449 2°54.08 336.8 14 330.3 10.3
2002-11-27 08:02:54 51°15.469 2°54.061 336.7 14 330.2 10.3
2002-11-27 08:02:59 51°15.486 2°54.045 336.7 14 329.9 10.3
2002-11-27 08:03:04 51°15.503 2°54.03 336.5 13.9 329.7 10.5
2002-11-27 08:03:08 51°15.516 2°54.017 336.8 14 329.8 10.5
2002-11-27 08:03:14 51°15.536 2°53.998 336.5 14 329.6 10.5
2002-11-27 08:03:19 51°15.553 2°53.983 337.2 14 329.7 10.6
2002-11-27 08:03:24 51°15.57 2°53.967 337 14 330 10.8
2002-11-27 08:03:28 51°15.583 2°53.955 337.7 14 330.6 10.8
2002-11-27 08:03:34 51°15.603 2°53.937 337.8 14 330.9 10.9
2002-11-27 08:03:39 51°15.621 2°53.922 337.8 14 330.9 11
2002-11-27 08:03:44 51°15.638 2°53.907 337.8 14.1 331.1 11.1
2002-11-27 08:03:48 51°15.652 2°53.895 337.8 14.2 331.1 11
2002-11-27 08:03:54 51°15.672 2°53.877 337.7 14.2 331.1 11.1
2002-11-27 08:03:59 51°15.69 2°53.861 337.3 14.2 331 11.3
2002-11-27 08:04:04 51°15.707 2°53.846 337.2 14.2 330.9 11.4
2002-11-27 08:04:08 51°15.72 2°53.833 337.3 14.3 330.8 11.4
2002-11-27 08:04:14 51°15.741 2°53.815 336.7 14.2 330.7 11.5
2002-11-27 08:04:19 51°15.758 2°53.798 335.8 14.2 329.8 11.6
2002-11-27 08:04:24 51°15.774 2°53.783 335.5 14.2 329.4 11.5
2002-11-27 08:04:28 51°15.788 2°53.769 335.2 14.2 328.9 11.4
2002-11-27 08:04:34 51°15.808 2°53.75 334.8 14.2 328.8 11.6
2002-11-27 08:04:39 51°15.825 2°53.734 335 14.1 328.6 11.8
2002-11-27 08:04:44 51°15.841 2°53.718 335 14 328.5 11.5
2002-11-27 08:04:48 51°15.855 2°53.705 335.2 14 328.7 11.8
2002-11-27 08:04:54 51°15.875 2°53.685 335 14.1 328.9 11.9
2002-11-27 08:04:59 51°15.892 2°53.669 335 14.1 329 11.9
2002-11-27 08:05:04 51°15.908 2°53.653 335 14.1 328.8 11.9
2002-11-27 08:05:08 51°15.921 2°53.64 334.8 14 328.6 12
2002-11-27 08:05:14 51°15.942 2°53.621 334.8 14 328.5 12.1
2002-11-27 08:05:19 51°15.958 2°53.605 334.7 14.1 328.6 12.2
2002-11-27 08:05:24 51°15.975 2°53.589 334.8 14 328.6 12.2
2002-11-27 08:05:28 51°15.988 2°53.576 334.8 14 328.7 12.1
2002-11-27 08:05:34 51°16.008 2°53.556 335 14 328.8 12.3
2002-11-27 08:05:39 51°16.025 2°53.541 335.2 14 329 12.3
2002-11-27 08:05:44 51°16.042 2°53.524 335.2 14.1 329.1 12.4
2002-11-27 08:05:48 51°16.055 2°53.511 335 14.1 328.8 12.4
2002-11-27 08:05:54 51°16.076 2°53.492 334.8 14.1 328.9 12.4
2002-11-27 08:05:59 51°16.092 2°53.476 334.8 14.2 328.9 12.5
2002-11-27 08:06:04 51°16.109 2°53.46 335 14.2 328.9 12.5
2002-11-27 08:06:09 51°16.126 2°53.444 335.2 14.1 328.9 12.4
2002-11-27 08:06:14 51°16.143 2°53.428 335.3 14.2 329.2 12.6
2002-11-27 08:06:19 51°16.16 2°53.412 335.7 14.2 329.7 12.5
2002-11-27 08:06:24 51°16.177 2°53.396 335.5 14.2 329.8 12.6
2002-11-27 08:06:28 51°16.191 2°53.383 335.5 14.2 329.7 12.6
2002-11-27 08:06:34 51°16.211 2°53.364 335.5 14.2 329.7 12.6
2002-11-27 08:06:39 51°16.228 2°53.348 335.2 14.2 329.5 12.8
2002-11-27 08:06:44 51°16.245 2°53.332 335.2 14.2 329.3 12.7
2002-11-27 08:06:48 51°16.258 2°53.319 335 14.2 329 12.5
2002-11-27 08:06:54 51°16.278 2°53.299 335 14.2 329 12.7
2002-11-27 08:06:59 51°16.295 2°53.283 335 14.2 328.9 12.7
2002-11-27 08:07:04 51°16.312 2°53.267 335.2 14.1 328.8 12.7
2002-11-27 08:07:08 51°16.325 2°53.254 335.2 14.2 328.9 12.7
2002-11-27 08:07:14 51°16.345 2°53.234 335.2 14.2 329 12.8
2002-11-27 08:07:19 51°16.362 2°53.218 335.3 14.2 329.1 12.6
2002-11-27 08:07:24 51°16.379 2°53.202 335.2 14.2 329.2 12.7
2002-11-27 08:07:28 51°16.392 2°53.189 335.2 14.1 329.2 12.7
2002-11-27 08:07:34 51°16.412 2°53.17 335.3 14.1 329.1 12.7
2002-11-27 08:07:39 51°16.43 2°53.154 335.2 14.1 328.9 12.7
2002-11-27 08:07:44 51°16.446 2°53.139 335 14.1 328.9 12.7
2002-11-27 08:07:48 51°16.46 2°53.126 335.2 14.1 328.8 12.3
2002-11-27 08:07:54 51°16.48 2°53.107 334.8 14.1 328.7 12.7
2002-11-27 08:07:59 51°16.497 2°53.09 334.7 14.2 328.4 12.6
2002-11-27 08:08:04 51°16.514 2°53.074 334.7 14.2 328.4 12.4
2002-11-27 08:08:08 51°16.527 2°53.061 335.2 14.1 328.9 12.4
2002-11-27 08:08:14 51°16.547 2°53.042 335.3 14.1 329.1 12.2
2002-11-27 08:08:19 51°16.564 2°53.026 335.5 14.1 329.3 12.2
2002-11-27 08:08:24 51°16.581 2°53.01 335.5 14 329.3 12.2
2002-11-27 08:08:28 51°16.595 2°52.998 335.5 14.1 329.5 12
2002-11-27 08:08:34 51°16.615 2°52.979 335.5 14.1 329.5 12
2002-11-27 08:08:39 51°16.631 2°52.963 335.3 14.1 329.5 11.9
2002-11-27 08:08:44 51°16.648 2°52.947 335.5 14.1 329.5 11.7
2002-11-27 08:08:48 51°16.662 2°52.934 335.2 14.1 329.4 11.7
2002-11-27 08:08:52 51°16.675 2°52.921 335 14.1 329 11.7
2002-11-27 08:08:59 51°16.699 2°52.899 335 14.1 329 11.4
2002-11-27 08:09:04 51°16.715 2°52.883 334.8 14.1 328.9 11
2002-11-27 08:09:08 51°16.729 2°52.87 335 14 329.2 11.2
2002-11-27 08:09:14 51°16.749 2°52.851 335.2 14.1 329.2 10.9
2002-11-27 08:09:18 51°16.763 2°52.838 335.2 14.1 329.5 10.3
2002-11-27 08:09:24 51°16.783 2°52.819 335.2 14.1 329.3 10
2002-11-27 08:09:28 51°16.796 2°52.807 335.3 14.1 329.5 9.8
2002-11-27 08:09:34 51°16.816 2°52.788 335.2 14 329.4 9.5
2002-11-27 08:09:39 51°16.832 2°52.772 335 13.9 329.4 10
2002-11-27 08:09:44 51°16.849 2°52.756 335.2 13.9 329.2 9.7
2002-11-27 08:09:48 51°16.863 2°52.744 335 14 329.4 9.7
2002-11-27 08:09:54 51°16.883 2°52.725 335.3 14.1 329.4 9.6
2002-11-27 08:09:59 51°16.9 2°52.71 336.2 14.1 330.1 9.8
2002-11-27 08:10:04 51°16.917 2°52.695 336.8 14 330.4 9.6
2002-11-27 08:10:08 51°16.931 2°52.683 337.3 14 331.3 9.8
2002-11-27 08:10:14 51°16.951 2°52.665 337.5 14.1 331.4 10.2
2002-11-27 08:10:19 51°16.968 2°52.65 337.7 14.2 331.6 10.3
2002-11-27 08:10:24 51°16.986 2°52.635 337.7 14.2 331.5 10.5
2002-11-27 08:10:28 51°17 2°52.623 337.8 14.3 331.6 10.5
2002-11-27 08:10:34 51°17.021 2°52.604 337.3 14.3 331.3 10.4
2002-11-27 08:10:38 51°17.035 2°52.592 337.3 14.4 331.2 9.9
2002-11-27 08:10:44 51°17.055 2°52.574 337 14.3 330.9 9.7
2002-11-27 08:10:48 51°17.069 2°52.562 337.3 14.2 331.1 9.8
2002-11-27 08:10:54 51°17.09 2°52.544 337.3 14.2 331.3 9.8
2002-11-27 08:10:59 51°17.107 2°52.528 337.3 14.1 331.1 10.1
2002-11-27 08:11:04 51°17.124 2°52.513 337.3 14.1 331.3 10.1
2002-11-27 08:11:08 51°17.138 2°52.501 337.5 14.2 331.1 9.9
2002-11-27 08:11:14 51°17.159 2°52.483 337.5 14.2 331.3 10.1
2002-11-27 08:11:19 51°17.175 2°52.468 337.3 14.2 331.1 10.1
2002-11-27 08:11:24 51°17.193 2°52.453 337.5 14.2 331.2 10.3
2002-11-27 08:11:28 51°17.207 2°52.441 337.5 14.3 331.6 10.5
2002-11-27 08:11:34 51°17.229 2°52.425 339.7 14.3 331.8 10.3
2002-11-27 08:11:39 51°17.247 2°52.413 343 14.3 335.7 10.5
2002-11-27 08:11:44 51°17.266 2°52.403 346.7 14.3 339 10.4
2002-11-27 08:11:48 51°17.281 2°52.396 349.5 14.3 342.2 10.5
2002-11-27 08:11:54 51°17.304 2°52.386 351.5 14.3 344 10.7
2002-11-27 08:11:59 51°17.324 2°52.379 353 14.3 346.1 10.6
2002-11-27 08:12:04 51°17.343 2°52.373 354.3 14.4 347.1 10.8
2002-11-27 08:12:08 51°17.359 2°52.368 354.8 14.4 348.3 10.8
2002-11-27 08:12:14 51°17.382 2°52.362 356.5 14.4 349.1 10.8
2002-11-27 08:12:19 51°17.402 2°52.359 359.7 14.3 352.1 10.7
2002-11-27 08:12:24 51°17.421 2°52.357 2.3 14.2 354.1 -999
2002-11-27 08:12:28 51°17.437 2°52.355 4.2 14.2 356.7 10.7
2002-11-27 08:12:34 51°17.461 2°52.355 5.5 14.3 357.9 10.8
2002-11-27 08:12:39 51°17.481 2°52.354 6.7 14.3 359.2 10.6
2002-11-27 08:12:44 51°17.501 2°52.354 7 14.3 359.5 10.6
2002-11-27 08:12:48 51°17.517 2°52.354 7.3 14.3 0.1 10.5
2002-11-27 08:12:54 51°17.541 2°52.354 7 14.4   10.6
2002-11-27 08:12:59 51°17.561 2°52.354 7.2 14.4 359.9 10.7
2002-11-27 08:13:04 51°17.58 2°52.354 7 14.4 359.7 10.6
2002-11-27 08:13:08 51°17.596 2°52.353 6.5 14.3 359.3 10.9
2002-11-27 08:13:14 51°17.62 2°52.353 6.5 14.3 359.4 10.6
2002-11-27 08:13:19 51°17.64 2°52.353 6.5 14.3 359.2 10.8
2002-11-27 08:13:24 51°17.66 2°52.352 6.3 14.3 359.3 10.4
2002-11-27 08:13:28 51°17.676 2°52.351 6.3 14.3 358.9 10.4
2002-11-27 08:13:34 51°17.699 2°52.35 6 14.3 359 10.7
2002-11-27 08:13:39 51°17.72 2°52.35 6 14.3 359 10.3
2002-11-27 08:13:44 51°17.739 2°52.349 5.8 14.4 358.6 10.6
2002-11-27 08:13:48 51°17.755 2°52.349 6.2 14.4 358.9 10.7
2002-11-27 08:13:54 51°17.779 2°52.347 5.7 14.4 358.8 10.6
2002-11-27 08:13:59 51°17.799 2°52.347 6 14.3 358.4 10.8
2002-11-27 08:14:04 51°17.819 2°52.346 6 14.4 358.4 10.8
2002-11-27 08:14:08 51°17.835 2°52.345 5.8 14.4 358.1 10.6
2002-11-27 08:14:14 51°17.859 2°52.344 5.5 14.4 358.5 10.9
2002-11-27 08:14:19 51°17.878 2°52.344 5.8 14.4 358.6 10.7
2002-11-27 08:14:24 51°17.898 2°52.345 8 14.3 0.1 10.6
2002-11-27 08:14:28 51°17.914 2°52.347 11.7 14.3 3.2 10.6
2002-11-27 08:14:33 51°17.934 2°52.352 15.2 14.3 6.8 10.7
2002-11-27 08:14:38 51°17.953 2°52.359 19 14.3 9.9 10.7
2002-11-27 08:14:43 51°17.972 2°52.366 20.7 14.3 12.6 10.9
2002-11-27 08:14:48 51°17.991 2°52.373 22.5 14.3 14 11
2002-11-27 08:14:52 51°18.006 2°52.381 23.2 14.3 15 10.7
2002-11-27 08:14:58 51°18.029 2°52.391 24.3 14.3 16 11
2002-11-27 08:15:04 51°18.051 2°52.401 24.2 14.2 16.2 10.9
2002-11-27 08:15:08 51°18.066 2°52.408 24 14.2 16.4 11
2002-11-27 08:15:12 51°18.082 2°52.415 23.7 14.2 15.9 11
2002-11-27 08:15:18 51°18.104 2°52.426 24.7 14.2 16.6 11.1
2002-11-27 08:15:23 51°18.124 2°52.434 24.3 14.3 16 11
2002-11-27 08:15:28 51°18.143 2°52.443 23.7 14.3 15.8 11.1
2002-11-27 08:15:32 51°18.158 2°52.449 23.8 14.3 15.6 11.1
2002-11-27 08:15:38 51°18.18 2°52.46 24.3 14.2 16.2 11.2
2002-11-27 08:15:44 51°18.204 2°52.469 23.7 14.3 15.7 11.2
2002-11-27 08:15:48 51°18.219 2°52.477 23.8 14.3 15.5 11.2
2002-11-27 08:15:53 51°18.238 2°52.485 23.7 14.3 15.2 11.2
2002-11-27 08:15:58 51°18.257 2°52.493 23.3 14.3 15 11.3
2002-11-27 08:16:03 51°18.276 2°52.5 22.8 14.4 14.4 11.4
2002-11-27 08:16:08 51°18.295 2°52.509 22.8 14.3 14.5 11.3
2002-11-27 08:16:13 51°18.314 2°52.517 22.7 14.2 14.5 11.4
2002-11-27 08:16:18 51°18.333 2°52.525 22.7 14.2 14.6 11.1
2002-11-27 08:16:23 51°18.353 2°52.532 22.5 14.3 14.4 11.4
2002-11-27 08:16:28 51°18.372 2°52.539 22.3 14.3 13.9 11.4
2002-11-27 08:16:34 51°18.395 2°52.549 22.7 14.3 14 11.5
2002-11-27 08:16:39 51°18.414 2°52.556 22.2 14.3 13.9 11.6
2002-11-27 08:16:43 51°18.429 2°52.563 22.8 14.3 14.3 11.4
2002-11-27 08:16:48 51°18.449 2°52.571 22.5 14.3 14.6 11.6
2002-11-27 08:16:53 51°18.468 2°52.579 23 14.3 14.3 11.6
2002-11-27 08:16:59 51°18.491 2°52.587 22.3 14.3 13.6 11.7
2002-11-27 08:17:03 51°18.507 2°52.593 22.2 14.3 13.6 11.6
2002-11-27 08:17:08 51°18.526 2°52.601 22 14.4 13.5 11.6
2002-11-27 08:17:12 51°18.541 2°52.608 22.7 14.4 14.7 11.8
2002-11-27 08:17:18 51°18.564 2°52.619 25.3 14.3 16.5 11.4
2002-11-27 08:17:24 51°18.586 2°52.633 28.8 14.3 19.1 11.6
2002-11-27 08:17:28 51°18.6 2°52.644 32.8 14.3 22.8 11.8
2002-11-27 08:17:32 51°18.613 2°52.656 36.5 14.2 27 11.6
2002-11-27 08:17:38 51°18.634 2°52.675 39.7 14.1 29.3 11.8
2002-11-27 08:17:43 51°18.65 2°52.692 42 14.1 32.4 11.9
2002-11-27 08:17:48 51°18.666 2°52.71 43.3 14.2 33.4 11.9
2002-11-27 08:17:52 51°18.678 2°52.725 45.3 14.2 35.7 11.6
2002-11-27 08:17:58 51°18.697 2°52.749 48 14.1 37.8 11.9
2002-11-27 08:18:03 51°18.711 2°52.77 51 14 41 12
2002-11-27 08:18:08 51°18.724 2°52.792 54.5 14 44.6 11.9
2002-11-27 08:18:12 51°18.735 2°52.811 57.3 14.1 47.5 12
2002-11-27 08:18:18 51°18.749 2°52.84 60 14 49.9 11.9
2002-11-27 08:18:23 51°18.761 2°52.864 61.8 13.9 52.2 12
2002-11-27 08:18:28 51°18.772 2°52.889 62.8 13.7 53.5 11.5
2002-11-27 08:18:32 51°18.781 2°52.908 63.5 13.8 53.9 11.9
2002-11-27 08:18:38 51°18.794 2°52.939 64.2 13.9 54.8 12
2002-11-27 08:18:43 51°18.805 2°52.965 66.3 13.9 56 12
2002-11-27 08:18:48 51°18.815 2°52.991 67.3 13.9 57.6 12
2002-11-27 08:18:52 51°18.823 2°53.012 67.7 14 58.1 12.1
2002-11-27 08:18:58 51°18.834 2°53.044 69.3 13.9 59.5 12
2002-11-27 08:19:03 51°18.844 2°53.071 69 13.9 60.3 12.1
2002-11-27 08:19:08 51°18.854 2°53.097 69.2 14 59.9 12
2002-11-27 08:19:12 51°18.861 2°53.119 71.5 13.9 61.4 11.9
2002-11-27 08:19:18 51°18.872 2°53.152 72.5 13.9 62.4 11.8
2002-11-27 08:19:23 51°18.88 2°53.179 73.3 13.9 63.3 12
2002-11-27 08:19:28 51°18.888 2°53.208 74.3 13.9 64.2 12
2002-11-27 08:19:32 51°18.894 2°53.23 74.2 13.9 65.2 11.8
2002-11-27 08:19:38 51°18.904 2°53.263 74.8 13.9 65.5 12
2002-11-27 08:19:43 51°18.912 2°53.291 75.5 13.9 66.1 12.1
2002-11-27 08:19:48 51°18.919 2°53.319 75.7 13.9 66.4 12.1
2002-11-27 08:19:52 51°18.925 2°53.342 76 13.8 66.6 12.1
2002-11-27 08:19:58 51°18.935 2°53.375 75.3 13.8 66.2 12.1
2002-11-27 08:20:02 51°18.941 2°53.397 75.3 13.7 65.8 12.1
2002-11-27 08:20:08 51°18.95 2°53.431 75.3 13.8 66.5 12
2002-11-27 08:20:12 51°18.956 2°53.454 76.3 13.9 66.2 12.1
2002-11-27 08:20:18 51°18.964 2°53.488 77.7 13.9 67.9 12.1
2002-11-27 08:20:23 51°18.971 2°53.516 78.3 13.8 68.6 12.1
2002-11-27 08:20:28 51°18.978 2°53.545 79.2 13.8 69.7 11.9
2002-11-27 08:20:32 51°18.983 2°53.568 80.3 13.8 70.1 12.2
2002-11-27 08:20:39 51°18.992 2°53.609 80.3 13.8 70.8 12.1
2002-11-27 08:20:43 51°18.996 2°53.632 81 13.8 71.2 12.1
2002-11-27 08:20:48 51°19.002 2°53.661 80.8 13.8 71.4 12.2
2002-11-27 08:20:52 51°19.007 2°53.684 81.2 13.8 71.2 12.2
2002-11-27 08:20:58 51°19.015 2°53.719 81 13.8 71.5 12.1
2002-11-27 08:21:04 51°19.022 2°53.754 80.2 13.9 71 12.1
2002-11-27 08:21:09 51°19.028 2°53.783 80.7 13.8 71.1 12
2002-11-27 08:21:13 51°19.033 2°53.806 80.8 13.8 71.5 12.2
2002-11-27 08:21:19 51°19.04 2°53.84 80.8 13.8 71.7 12
2002-11-27 08:21:23 51°19.045 2°53.863 80.3 13.8 71.2 12
2002-11-27 08:21:29 51°19.052 2°53.898 80.3 13.8 71.1 11.9
2002-11-27 08:21:33 51°19.058 2°53.921 79.7 13.8 70.6 12.2
2002-11-27 08:21:39 51°19.065 2°53.955 79.2 13.9 69.6 12.2
2002-11-27 08:21:43 51°19.07 2°53.978 79.8 13.7 70.2 12.1
2002-11-27 08:21:49 51°19.077 2°54.012 81 13.7 71.1 12
2002-11-27 08:21:53 51°19.082 2°54.035 80.8 13.7 71.6 12
2002-11-27 08:21:59 51°19.09 2°54.07 80.5 13.7 71.1 12.2
2002-11-27 08:22:04 51°19.096 2°54.098 80 13.7 70.5 12.1
2002-11-27 08:22:09 51°19.103 2°54.127 80.2 13.7 70.3 12.1
2002-11-27 08:22:13 51°19.107 2°54.15 80.3 13.7 70.6 12.1
2002-11-27 08:22:19 51°19.115 2°54.185 80.5 13.8 71.1 12.1
2002-11-27 08:22:24 51°19.121 2°54.214 80.7 13.8 71.2 11.8
2002-11-27 08:22:29 51°19.127 2°54.242 81 13.8 71.4 12.1
2002-11-27 08:22:33 51°19.131 2°54.265 80.8 13.7 71.4 12.1
2002-11-27 08:22:39 51°19.139 2°54.3 80.7 13.7 71.4 12.1
2002-11-27 08:22:44 51°19.146 2°54.328 80 13.7 70.4 12.1
2002-11-27 08:22:49 51°19.152 2°54.357 79.8 13.7 70.6 12.2
2002-11-27 08:22:53 51°19.157 2°54.379 79.3 13.8 69.6 12.1
2002-11-27 08:22:59 51°19.165 2°54.414 80 13.8 70.1 12.2
2002-11-27 08:23:04 51°19.172 2°54.443 79.8 13.8 70.2 12.2
2002-11-27 08:23:09 51°19.178 2°54.472 80.5 13.8 70.7 12
2002-11-27 08:23:13 51°19.183 2°54.495 80.5 13.8 70.8 12.2
2002-11-27 08:23:19 51°19.19 2°54.529 80.5 13.8 70.9 12.1
2002-11-27 08:23:24 51°19.197 2°54.558 80.8 13.7 71 12
2002-11-27 08:23:29 51°19.202 2°54.587 81.3 13.7 71.3 12.1
2002-11-27 08:23:33 51°19.207 2°54.61 81.2 13.7 71.7 12
2002-11-27 08:23:39 51°19.215 2°54.644 80.8 13.7 71 12.2
2002-11-27 08:23:44 51°19.221 2°54.673 80.7 13.7 70.5 12.1
2002-11-27 08:23:49 51°19.227 2°54.702 80.5 13.7 70.4 12.2
2002-11-27 08:23:53 51°19.232 2°54.725 80.2 13.7 70.4 11.8
2002-11-27 08:23:59 51°19.24 2°54.759 79.8 13.7 70.1 12
2002-11-27 08:24:04 51°19.247 2°54.787 79.5 13.8 69.9 11.9
2002-11-27 08:24:09 51°19.253 2°54.816 79.2 13.8 69.7 12.1
2002-11-27 08:24:13 51°19.258 2°54.839 79.7 13.8 69.5 12.1
2002-11-27 08:24:19 51°19.266 2°54.873 79.8 13.7 69.8 12
2002-11-27 08:24:23 51°19.271 2°54.896 80.7 13.7 70.4 12.1
2002-11-27 08:24:29 51°19.278 2°54.931 81 13.7 70.9 12.3
2002-11-27 08:24:33 51°19.283 2°54.954 80.8 13.8 71.3 12.2
2002-11-27 08:24:39 51°19.291 2°54.988 80.2 13.8 70.6 11.7
2002-11-27 08:24:44 51°19.297 2°55.017 79.7 13.7 70.4 12.1
2002-11-27 08:24:49 51°19.304 2°55.045 79.3 13.7 69.9 12.1
2002-11-27 08:24:53 51°19.31 2°55.067 79.3 13.7 69.7 12.2
2002-11-27 08:24:59 51°19.317 2°55.101 79.8 13.7 69.9 12.1
2002-11-27 08:25:04 51°19.324 2°55.13 79.7 13.7 70 11.9
2002-11-27 08:25:09 51°19.33 2°55.159 80.2 13.7 70.3 12
2002-11-27 08:25:14 51°19.337 2°55.187 80.3 13.7 70.3 12
2002-11-27 08:25:19 51°19.343 2°55.216 80.7 13.7 70.7 11.9
2002-11-27 08:25:24 51°19.349 2°55.245 81 13.7 70.8 11.8
2002-11-27 08:25:29 51°19.355 2°55.274 80.8 13.7 71.4 11.7
2002-11-27 08:25:33 51°19.36 2°55.297 80.8 13.8 71.1 12
2002-11-27 08:25:39 51°19.368 2°55.331 81 13.8 71.3 12
2002-11-27 08:25:43 51°19.372 2°55.354 81.2 13.7 71.4 11.6
2002-11-27 08:25:49 51°19.379 2°55.389 81.3 13.7 71.5 11.9
2002-11-27 08:25:53 51°19.384 2°55.413 80.7 13.8 71.5 11.9
2002-11-27 08:25:59 51°19.393 2°55.449 79.8 13.9 70.4 11.9
2002-11-27 08:26:04 51°19.399 2°55.477 80 13.8 70.2 11.9
2002-11-27 08:26:09 51°19.406 2°55.506 79.8 13.7 70.1 11.8
2002-11-27 08:26:14 51°19.413 2°55.535 79.7 13.7 70.1 11.9
2002-11-27 08:26:19 51°19.42 2°55.563 79 13.7 69.9 11.9
2002-11-27 08:26:24 51°19.426 2°55.591 79.3 13.8 69.4 12
2002-11-27 08:26:29 51°19.433 2°55.62 79.3 13.7 69.6 11.6
2002-11-27 08:26:33 51°19.437 2°55.643 80.2 13.7 70 11.8
2002-11-27 08:26:39 51°19.445 2°55.677 80.3 13.6 70.8 11.9
2002-11-27 08:26:44 51°19.451 2°55.706 80.5 13.6 70.5 11.9
2002-11-27 08:26:49 51°19.457 2°55.734 80.8 13.7 71.3 11.7
2002-11-27 08:26:53 51°19.462 2°55.757 80.5 13.7 70.5 11.7
2002-11-27 08:26:59 51°19.469 2°55.793 81.2 13.7 71.7 11.8
2002-11-27 08:27:04 51°19.476 2°55.821 80.3 13.7 70.3 11.9
2002-11-27 08:27:09 51°19.481 2°55.849 81.5 13.6 71.4 11.9
2002-11-27 08:27:13 51°19.487 2°55.872 80.3 13.7 70.7 11.8
2002-11-27 08:27:19 51°19.493 2°55.906 80.5 13.7 70.8 11.8
2002-11-27 08:27:24 51°19.5 2°55.935 79.5 13.8 70.2 11.5
2002-11-27 08:27:29 51°19.506 2°55.964 80.3 13.9 70.5 11.7
2002-11-27 08:27:33 51°19.512 2°55.987 80 13.9 70.5 11.7
2002-11-27 08:27:39 51°19.518 2°56.022 80.8 13.8 70.2 11.7
2002-11-27 08:27:44 51°19.525 2°56.05 81 13.8 71.4 11.7
2002-11-27 08:27:49 51°19.531 2°56.08 80.7 14 71.2 11.6
2002-11-27 08:27:53 51°19.536 2°56.103 80.2 14 70.9 11.7
2002-11-27 08:27:59 51°19.543 2°56.137 80.7 13.9 70.4 11.6
2002-11-27 08:28:04 51°19.551 2°56.165 80.3 13.7 70.8 11.6
2002-11-27 08:28:09 51°19.556 2°56.195 80.7 13.8 70.7 11.6
2002-11-27 08:28:13 51°19.562 2°56.218 79.8 14 70.3 11.5
2002-11-27 08:28:19 51°19.569 2°56.253 80 14.1 70.4 11.6
2002-11-27 08:28:23 51°19.575 2°56.276 80.2 14 70.1 11.4
2002-11-27 08:28:29 51°19.581 2°56.312 81 13.9 71.4 11.6
2002-11-27 08:28:33 51°19.587 2°56.335 80.5 14.1 70.6 11.6
2002-11-27 08:28:39 51°19.594 2°56.37 80.3 14.1 71.2 11.5
2002-11-27 08:28:44 51°19.6 2°56.4 81 14 71.2 11.5
2002-11-27 08:28:49 51°19.606 2°56.429 80.7 14 71.3 11.5
2002-11-27 08:28:53 51°19.612 2°56.452 80.2 14 70.8 11.2
2002-11-27 08:28:59 51°19.619 2°56.487 80.2 14 70.7 11.5
2002-11-27 08:29:04 51°19.625 2°56.516 80.7 13.9 70.9 11.2
2002-11-27 08:29:09 51°19.632 2°56.545 80.2 13.9 70.8 11.4
2002-11-27 08:29:13 51°19.636 2°56.568 80.5 14 71.4 11.3
2002-11-27 08:29:19 51°19.644 2°56.603 79.7 14 70.2 11.1
2002-11-27 08:29:23 51°19.649 2°56.626 80.5 13.9 70.8 11.5
2002-11-27 08:29:29 51°19.657 2°56.661 80.3 13.8 70.5 11.4
2002-11-27 08:29:33 51°19.662 2°56.684 79.7 14 70.3 11.3
2002-11-27 08:29:39 51°19.671 2°56.718 79 14 69.8 11.4
2002-11-27 08:29:44 51°19.677 2°56.747 78.8 13.9 69.3 11.4
2002-11-27 08:29:49 51°19.684 2°56.776 79.3 13.8 69.3 11.3
2002-11-27 08:29:53 51°19.689 2°56.799 79.8 13.8 70.1 11.3
2002-11-27 08:29:59 51°19.697 2°56.835 80 13.9 70.4 11.2
2002-11-27 08:30:04 51°19.703 2°56.864 80.2 14 70.6 11.2
2002-11-27 08:30:09 51°19.709 2°56.893 80.5 14 70.9 11.4
2002-11-27 08:30:13 51°19.714 2°56.916 80.2 13.9 70.5 11.2
2002-11-27 08:30:19 51°19.722 2°56.951 79.8 13.9 70.3 11.1
2002-11-27 08:30:24 51°19.729 2°56.98 80.2 13.9 70.4 11.1
2002-11-27 08:30:29 51°19.735 2°57.009 80.2 14 70.5 11.2
2002-11-27 08:30:33 51°19.741 2°57.032 79.5 14.1 70.1 11.2
2002-11-27 08:30:39 51°19.748 2°57.068 80 14 70.5 11.2
2002-11-27 08:30:44 51°19.755 2°57.097 80.3 14 70.9 11.3
2002-11-27 08:30:49 51°19.761 2°57.126 81 14 71.4 11.2
2002-11-27 08:30:53 51°19.766 2°57.149 80.8 14 71.3 11.2
2002-11-27 08:30:59 51°19.772 2°57.185 81.2 14 71.5 11.2
2002-11-27 08:31:04 51°19.778 2°57.214 81 14 71.4 11.2
2002-11-27 08:31:09 51°19.785 2°57.243 80.3 13.9 70.8 11
2002-11-27 08:31:13 51°19.79 2°57.266 80 13.9 70.3 11.2
2002-11-27 08:31:19 51°19.797 2°57.301 80.5 13.9 70.8 11.1
2002-11-27 08:31:24 51°19.804 2°57.33 80.3 13.9 71 11.1
2002-11-27 08:31:29 51°19.81 2°57.36 79.8 13.9 70.8 11.2
2002-11-27 08:31:33 51°19.815 2°57.383 79.7 13.9 70.4 11.2
2002-11-27 08:31:39 51°19.824 2°57.417 79.3 13.9 70.1 11.2
2002-11-27 08:31:44 51°19.83 2°57.445 79.2 13.9 70 11.2
2002-11-27 08:31:49 51°19.837 2°57.474 79.5 13.8 69.9 11
2002-11-27 08:31:53 51°19.842 2°57.498 79.7 13.9 70 11.2
2002-11-27 08:31:59 51°19.85 2°57.533 79.7 13.9 70.4 11
2002-11-27 08:32:04 51°19.856 2°57.562 80 14 70.9 11.2
2002-11-27 08:32:09 51°19.862 2°57.591 80.3 13.9 70.8 11.2
2002-11-27 08:32:14 51°19.868 2°57.62 80.8 13.8 71.6 11
2002-11-27 08:32:19 51°19.874 2°57.649 80.8 13.8 71.3 11
2002-11-27 08:32:24 51°19.881 2°57.678 79.8 13.9 70.8 11.1
2002-11-27 08:32:29 51°19.887 2°57.707 79.5 13.9 70.6 11
2002-11-27 08:32:33 51°19.892 2°57.73 79.5 13.8 70.1 11.1
2002-11-27 08:32:39 51°19.9 2°57.764 79.5 13.8 70.3 11
2002-11-27 08:32:44 51°19.906 2°57.794 80.3 13.9 70.8 11
2002-11-27 08:32:49 51°19.912 2°57.823 80.5 13.9 71.3 10.8
2002-11-27 08:32:53 51°19.917 2°57.846 81 13.9 71.6 11
2002-11-27 08:32:59 51°19.924 2°57.881 80.8 13.9 72 11
2002-11-27 08:33:04 51°19.93 2°57.91 81.2 13.8 71.6 10.9
2002-11-27 08:33:09 51°19.936 2°57.939 80.7 13.9 71.3 11
2002-11-27 08:33:13 51°19.941 2°57.963 80.2 13.9 71 11
2002-11-27 08:33:19 51°19.949 2°57.997 79.8 13.9 70.3 11
2002-11-27 08:33:24 51°19.955 2°58.027 80.2 13.9 70.8 11
2002-11-27 08:33:29 51°19.962 2°58.056 79.3 13.9 70 11
2002-11-27 08:33:33 51°19.967 2°58.079 80 13.9 70.5 11
2002-11-27 08:33:39 51°19.974 2°58.113 80.5 13.8 70.6 10.9
2002-11-27 08:33:44 51°19.981 2°58.142 80 13.8 71 10.9
2002-11-27 08:33:49 51°19.987 2°58.171 79.7 13.8 70.3 10.8
2002-11-27 08:33:53 51°19.993 2°58.194 79.2 13.9 70.4 10.8
2002-11-27 08:33:59 51°20 2°58.229 80 13.9 69.6 10.6
2002-11-27 08:34:04 51°20.007 2°58.258 80 13.9 70.5 10.9
2002-11-27 08:34:09 51°20.013 2°58.287 80 13.9 70.5 10.6
2002-11-27 08:34:13 51°20.018 2°58.31 79.5 13.9 70.6 10.8
2002-11-27 08:34:19 51°20.025 2°58.345 80 13.9 70.7 10.8
2002-11-27 08:34:24 51°20.033 2°58.374 79.2 13.9 70 10.7
2002-11-27 08:34:29 51°20.039 2°58.403 79.3 13.9 70.1 10.9
2002-11-27 08:34:33 51°20.044 2°58.425 79.5 13.8 69.6 10.9
2002-11-27 08:34:39 51°20.052 2°58.46 79.7 13.8 70.3 10.7
2002-11-27 08:34:44 51°20.058 2°58.489 79.3 13.8 70 10.8
2002-11-27 08:34:49 51°20.064 2°58.518 80 13.9 70.5 10.7
2002-11-27 08:34:53 51°20.07 2°58.541 79.7 13.9 70.4 10.8
2002-11-27 08:34:59 51°20.077 2°58.576 80 13.9 70.6 10.9
2002-11-27 08:35:04 51°20.084 2°58.605 80.5 13.9 71.1 10.5
2002-11-27 08:35:09 51°20.09 2°58.635 80.3 13.9 71.2 10.8
2002-11-27 08:35:13 51°20.095 2°58.658 80.5 13.9 71.3 10.8
2002-11-27 08:35:19 51°20.102 2°58.693 81.2 13.9 71.9 10.8
2002-11-27 08:35:24 51°20.107 2°58.722 81.8 13.9 72.3 10.8
2002-11-27 08:35:29 51°20.113 2°58.752 81.8 13.9 72.8 10.8
2002-11-27 08:35:33 51°20.118 2°58.775 81.2 13.9 72.3 10.6
2002-11-27 08:35:39 51°20.125 2°58.81 81 13.9 72 10.7
2002-11-27 08:35:44 51°20.132 2°58.839 80 13.9 71.4 10.2
2002-11-27 08:35:49 51°20.138 2°58.868 80 13.9 70.9 10.7
2002-11-27 08:35:53 51°20.143 2°58.891 80.2 13.8 70.7 10.5
2002-11-27 08:35:59 51°20.15 2°58.926 80 13.8 70.8 10.7
2002-11-27 08:36:04 51°20.157 2°58.955 80.2 13.8 70.8 10.7
2002-11-27 08:36:09 51°20.163 2°58.984 79.2 13.9 70.6 10.4
2002-11-27 08:36:14 51°20.169 2°59.013 80 13.9 70.7 10.7
2002-11-27 08:36:19 51°20.175 2°59.042 80.7 13.9 71.1 10.3
2002-11-27 08:36:24 51°20.181 2°59.072 81.3 13.7 72.5 10.5
2002-11-27 08:36:29 51°20.187 2°59.101 81.5 13.8 72.5 10.5
2002-11-27 08:36:33 51°20.192 2°59.124 80.3 13.9 71.7 10.3
2002-11-27 08:36:39 51°20.198 2°59.159 80.7 13.8 71.6 10.6
2002-11-27 08:36:44 51°20.205 2°59.187 80.3 13.7 71.6 10.5
2002-11-27 08:36:49 51°20.211 2°59.217 80.2 13.8 71.2 10.3
2002-11-27 08:36:53 51°20.216 2°59.24 80 13.8 71.3 10.6
2002-11-27 08:36:59 51°20.223 2°59.275 79.8 13.9 71 10.3
2002-11-27 08:37:04 51°20.23 2°59.303 79.8 13.8 70.9 10.5
2002-11-27 08:37:09 51°20.235 2°59.332 80.7 13.7 71.4 10.4
2002-11-27 08:37:13 51°20.24 2°59.355 80.5 13.7 71.8 10.5
2002-11-27 08:37:19 51°20.247 2°59.39 80.8 13.8 71.8 10.1
2002-11-27 08:37:24 51°20.254 2°59.419 80.5 13.8 71.5 10.1
2002-11-27 08:37:29 51°20.26 2°59.448 80.2 13.8 71.3 10.5
2002-11-27 08:37:33 51°20.265 2°59.472 79.2 13.8 70.5 10.5
2002-11-27 08:37:39 51°20.273 2°59.506 79.3 13.8 70.3 10.4
2002-11-27 08:37:44 51°20.279 2°59.535 79.8 13.7 70.8 10.5
2002-11-27 08:37:49 51°20.285 2°59.564 79.7 13.7 71.1 10.1
2002-11-27 08:37:53 51°20.291 2°59.588 79.7 13.9 71 10.4
2002-11-27 08:37:59 51°20.298 2°59.622 80.2 13.9 71.5 10.3
2002-11-27 08:38:04 51°20.304 2°59.651 80.3 13.8 71.4 10.5
2002-11-27 08:38:09 51°20.31 2°59.68 81 13.7 71.8 10.5
2002-11-27 08:38:13 51°20.314 2°59.704 80.8 13.7 71.8 10.5
2002-11-27 08:38:19 51°20.322 2°59.739 80.8 13.9 72.1 10.4
2002-11-27 08:38:23 51°20.326 2°59.762 81 13.9 72 10.4
2002-11-27 08:38:29 51°20.333 2°59.797 80.3 13.8 71.5 10.4
2002-11-27 08:38:33 51°20.338 2°59.82 80.3 13.7 71.5 10.2
2002-11-27 08:38:39 51°20.345 2°59.855 80.5 13.7 71.5 10.4
2002-11-27 08:38:44 51°20.352 2°59.884 80.2 13.8 71.6 10.4
2002-11-27 08:38:49 51°20.358 2°59.913 79.7 13.8 71.2 10.3
2002-11-27 08:38:53 51°20.363 2°59.937 79.8 13.9 71.1 10.4
2002-11-27 08:38:59 51°20.37 2°59.971 79.3 13.8 70.5 10.1
2002-11-27 08:39:04 51°20.376 2°60 79.5 13.8 70.6 10.3
2002-11-27 08:39:09 51°20.383 3°0.028 79.8 13.8 70.4 10.3
2002-11-27 08:39:13 51°20.387 3°0.052 80.3 13.8 71 10.3
2002-11-27 08:39:19 51°20.395 3°0.087 80.5 13.8 71 10.3
2002-11-27 08:39:24 51°20.401 3°0.115 80.2 13.8 71 10.3
2002-11-27 08:39:29 51°20.407 3°0.144 80 13.7 70.8 10.3
2002-11-27 08:39:33 51°20.412 3°0.167 80.5 13.6 71.3 10.3
2002-11-27 08:39:39 51°20.419 3°0.202 80.8 13.6 71.7 10.2
2002-11-27 08:39:44 51°20.425 3°0.231 80.7 13.7 71.7 10.3
2002-11-27 08:39:49 51°20.431 3°0.26 80.3 13.8 71.8 10
2002-11-27 08:39:53 51°20.436 3°0.282 79.8 13.7 71.1 10.3
2002-11-27 08:39:59 51°20.442 3°0.317 80.7 13.7 71.1 10
2002-11-27 08:40:04 51°20.449 3°0.345 79.8 13.6 71 10.2
2002-11-27 08:40:09 51°20.454 3°0.374 80 13.6 71.2 10.3
2002-11-27 08:40:13 51°20.459 3°0.397 80.3 13.7 71.4 10.2
2002-11-27 08:40:19 51°20.466 3°0.432 80.8 13.7 71.8 10.3
2002-11-27 08:40:24 51°20.472 3°0.461 81 13.6 72.2 10.3
2002-11-27 08:40:29 51°20.477 3°0.489 81.3 13.6 72.1 10.3
2002-11-27 08:40:33 51°20.482 3°0.512 81.3 13.6 72.5 10.2
2002-11-27 08:40:39 51°20.489 3°0.546 80.7 13.6 72.2 10.2
2002-11-27 08:40:44 51°20.495 3°0.574 80 13.5 71.1 10.1
2002-11-27 08:40:49 51°20.501 3°0.603 79.5 13.5 70.5 10.1
2002-11-27 08:40:53 51°20.506 3°0.626 79.7 13.6 70.4 10.1
2002-11-27 08:40:59 51°20.514 3°0.66 79.3 13.7 70.3 10.1
2002-11-27 08:41:04 51°20.519 3°0.689 79.5 13.7 70.8 10.2
2002-11-27 08:41:09 51°20.525 3°0.717 80.3 13.6 71.2 10.2
2002-11-27 08:41:13 51°20.53 3°0.74 80.5 13.5 71.6 10.3
2002-11-27 08:41:19 51°20.537 3°0.774 79.7 13.5 71.3 10.2
2002-11-27 08:41:24 51°20.544 3°0.802 78 13.5 69.9 10.2
2002-11-27 08:41:29 51°20.551 3°0.83 76.5 13.5 68.1 10.3
2002-11-27 08:41:33 51°20.557 3°0.851 75.3 13.6 66.6 10.2
2002-11-27 08:41:39 51°20.567 3°0.884 74.3 13.6 65.5 10.2
2002-11-27 08:41:43 51°20.573 3°0.906 73.8 13.6 65.1 10.3
2002-11-27 08:41:49 51°20.583 3°0.939 72.8 13.6 64.4 9.9
2002-11-27 08:41:53 51°20.589 3°0.96 72.8 13.6 64.2 9.9
2002-11-27 08:41:59 51°20.599 3°0.993 73.3 13.6 64.3 10.2
2002-11-27 08:42:03 51°20.605 3°1.015 74 13.6 64.8 10.3
2002-11-27 08:42:09 51°20.615 3°1.047 74 13.6 65.1 10.3
2002-11-27 08:42:13 51°20.621 3°1.069 74.2 13.6 64.9 10.2
2002-11-27 08:42:19 51°20.63 3°1.102 73.8 13.6 65 10.2
2002-11-27 08:42:24 51°20.638 3°1.13 73.5 13.6 64.8 10.2
2002-11-27 08:42:29 51°20.646 3°1.157 73.5 13.6 64.9 10.4
2002-11-27 08:42:33 51°20.652 3°1.179 74.2 13.6 65 10.3
2002-11-27 08:42:39 51°20.661 3°1.212 74 13.6 65.8 10.3
2002-11-27 08:42:43 51°20.668 3°1.234 73.8 13.7 65.3 10.3
2002-11-27 08:42:49 51°20.678 3°1.267 73.7 13.8 65 10.1
2002-11-27 08:42:53 51°20.684 3°1.289 73.3 13.7 64.7 10.3
2002-11-27 08:42:59 51°20.694 3°1.322 73.7 13.7 64.6 10.2
2002-11-27 08:43:04 51°20.701 3°1.349 74.2 13.7 65.4 10.1
2002-11-27 08:43:09 51°20.709 3°1.377 74 13.6 65.4 10.1
2002-11-27 08:43:13 51°20.715 3°1.399 74.5 13.6 66.2 10
2002-11-27 08:43:19 51°20.723 3°1.431 75 13.6 66.4 10.2
2002-11-27 08:43:24 51°20.73 3°1.459 75.7 13.5 67.2 10.2
2002-11-27 08:43:29 51°20.737 3°1.487 76 13.6 67.5 10.2
2002-11-27 08:43:33 51°20.743 3°1.51 76 13.7 68 10.3
2002-11-27 08:43:39 51°20.751 3°1.544 76 13.7 68 10.3
2002-11-27 08:43:44 51°20.758 3°1.573 76 13.6 67.7 10.3
2002-11-27 08:43:49 51°20.766 3°1.601 75.7 13.7 67.3 10.2
2002-11-27 08:43:53 51°20.771 3°1.624 75.3 13.7 67.1 10.3
2002-11-27 08:43:59 51°20.779 3°1.658 76.3 13.6 67.9 10.4
2002-11-27 08:44:04 51°20.786 3°1.686 77.2 13.5 69.2 10
2002-11-27 08:44:09 51°20.793 3°1.713 77 13.5 69.4 10.3
2002-11-27 08:44:13 51°20.798 3°1.736 76.7 13.6 69 10
2002-11-27 08:44:19 51°20.807 3°1.77 76 13.6 68.2 10.4
2002-11-27 08:44:24 51°20.813 3°1.798 76 13.6 68.4 10.5
2002-11-27 08:44:29 51°20.82 3°1.825 75.8 13.5 68 10.3
2002-11-27 08:44:33 51°20.826 3°1.848 75.8 13.5 68.1 10.3
2002-11-27 08:44:39 51°20.833 3°1.882 76.7 13.4 68.5 10.4
2002-11-27 08:44:43 51°20.839 3°1.904 76.5 13.5 68.9 10.4
2002-11-27 08:44:49 51°20.847 3°1.937 75.7 13.5 68.2 10.4
2002-11-27 08:44:53 51°20.853 3°1.96 75.8 13.5 68.5 10.3
2002-11-27 08:44:59 51°20.862 3°1.993 74.7 13.5 68 10.2
2002-11-27 08:45:04 51°20.869 3°2.021 74.8 13.6 67.2 10
2002-11-27 08:45:09 51°20.876 3°2.049 75.5 13.6 67.1 10.3
2002-11-27 08:45:13 51°20.88 3°2.071 76.7 13.5 68.8 10.3
2002-11-27 08:45:19 51°20.888 3°2.104 77.2 13.4 69 10.5
2002-11-27 08:45:24 51°20.894 3°2.133 77.5 13.4 69.8 10.3
2002-11-27 08:45:29 51°20.901 3°2.161 77 13.6 69.5 10.1
2002-11-27 08:45:33 51°20.907 3°2.184 76.5 13.6 68.9 10.4
2002-11-27 08:45:39 51°20.914 3°2.217 76.5 13.5 68.8 10.1
2002-11-27 08:45:44 51°20.92 3°2.246 76.8 13.5 69.7 10.4
2002-11-27 08:45:49 51°20.928 3°2.273 76 13.5 68.9 10.5
2002-11-27 08:45:53 51°20.933 3°2.293 76.5 13.5 68.9 10.5
2002-11-27 08:45:59 51°20.941 3°2.326 76.3 13.4 68.7 10.5
2002-11-27 08:46:04 51°20.948 3°2.354 76.8 13.3 69.1 10.5
2002-11-27 08:46:09 51°20.954 3°2.383 76.5 13.4 69 10.3
2002-11-27 08:46:14 51°20.961 3°2.41 75.7 13.5 68.4 10.3
2002-11-27 08:46:19 51°20.968 3°2.439 75.5 13.5 67.8 10.2
2002-11-27 08:46:24 51°20.975 3°2.467 76.2 13.4 68.4 10.3
2002-11-27 08:46:29 51°20.982 3°2.495 75.5 13.5 67.9 10.3
2002-11-27 08:46:33 51°20.988 3°2.517 75.5 13.5 67.8 10.3
2002-11-27 08:46:39 51°20.995 3°2.55 75.7 13.5 68.2 10.3
2002-11-27 08:46:44 51°21.002 3°2.578 75.8 13.5 68.3 10
2002-11-27 08:46:49 51°21.009 3°2.606 76 13.5 68.3 10.1
2002-11-27 08:46:53 51°21.014 3°2.628 75.5 13.5 68.4 10
2002-11-27 08:46:59 51°21.022 3°2.662 75.5 13.5 68.2 9.6
2002-11-27 08:47:04 51°21.029 3°2.689 75.8 13.5 68.1 10.1
2002-11-27 08:47:09 51°21.036 3°2.718 76.3 13.5 68.5 10.1
2002-11-27 08:47:13 51°21.041 3°2.741 76.2 13.5 69 9.7
2002-11-27 08:47:19 51°21.049 3°2.774 75.8 13.5 68.9 9.8
2002-11-27 08:47:24 51°21.056 3°2.801 75.8 13.5 68.7 10.1
2002-11-27 08:47:29 51°21.062 3°2.829 76.2 13.4 69 10.4
2002-11-27 08:47:33 51°21.067 3°2.852 76.8 13.5 69.7 9.9
2002-11-27 08:47:39 51°21.075 3°2.886 76.5 13.6 69.8 -999
2002-11-27 08:47:44 51°21.082 3°2.914 75.8 13.6 69.2 8.9
2002-11-27 08:47:49 51°21.089 3°2.942 75.3 13.6 68.8 9.4
2002-11-27 08:47:53 51°21.094 3°2.964 75.3 13.5 68.2 17.3
2002-11-27 08:47:59 51°21.102 3°2.997 76.5 13.4 69.1 10.4
2002-11-27 08:48:04 51°21.109 3°3.025 76.3 13.5 69.4 -999
2002-11-27 08:48:09 51°21.115 3°3.052 76.3 13.5 69.5 9.8
2002-11-27 08:48:13 51°21.121 3°3.074 76.2 13.6 69.2 17.1
2002-11-27 08:48:19 51°21.129 3°3.108 76.7 13.6 69.4 17.2
2002-11-27 08:48:24 51°21.135 3°3.137 77.5 13.6 70.2 9.4
2002-11-27 08:48:29 51°21.141 3°3.166 77.5 13.7 70.9 9.9
2002-11-27 08:48:33 51°21.146 3°3.189 77.5 13.7 70.8 9.6
2002-11-27 08:48:39 51°21.153 3°3.223 77.2 13.6 70.5 -999
2002-11-27 08:48:44 51°21.159 3°3.251 77.2 13.5 70.3 -999
2002-11-27 08:48:49 51°21.165 3°3.28 78 13.5 71.1 10.4
2002-11-27 08:48:53 51°21.17 3°3.303 77.8 13.5 71.2 10
2002-11-27 08:48:59 51°21.177 3°3.337 77.8 13.6 71.3 -999
2002-11-27 08:49:04 51°21.184 3°3.366 77 13.6 70.5 10.2
2002-11-27 08:49:09 51°21.19 3°3.394 76.5 13.6 70.4 9.8
2002-11-27 08:49:13 51°21.196 3°3.416 76 13.6 69.6 10.4
2002-11-27 08:49:19 51°21.203 3°3.45 76.5 13.5 69.7 10.3
2002-11-27 08:49:23 51°21.208 3°3.472 76.8 13.5 70 10.3
2002-11-27 08:49:29 51°21.216 3°3.506 76.7 13.6 70.3 10.5
2002-11-27 08:49:33 51°21.221 3°3.529 76.8 13.6 70.1 10.5
2002-11-27 08:49:39 51°21.228 3°3.563 77.2 13.6 70.3 10.4
2002-11-27 08:49:44 51°21.235 3°3.591 77.3 13.6 70.7 -999
2002-11-27 08:49:49 51°21.241 3°3.619 77.5 13.5 70.9 7.5
2002-11-27 08:49:54 51°21.247 3°3.647 78 13.5 71.1 -999
2002-11-27 08:49:59 51°21.253 3°3.675 77.8 13.5 71.2 10.5
2002-11-27 08:50:04 51°21.26 3°3.703 77.5 13.6 70.8 10.5
2002-11-27 08:50:09 51°21.266 3°3.732 77.3 13.6 70.6 10.4
2002-11-27 08:50:13 51°21.271 3°3.755 76.7 13.6 70.4 10.4
2002-11-27 08:50:19 51°21.279 3°3.789 76.5 13.7 70.2 10.5
2002-11-27 08:50:24 51°21.285 3°3.817 76.8 13.7 70.6 10.3
2002-11-27 08:50:29 51°21.291 3°3.845 77.3 13.6 70.7 10.4
2002-11-27 08:50:33 51°21.295 3°3.868 78.3 13.5 71.5 10.4
2002-11-27 08:50:39 51°21.303 3°3.902 78 13.5 71.4 10.4
2002-11-27 08:50:44 51°21.309 3°3.931 77.2 13.7 70.8 10.4
2002-11-27 08:50:49 51°21.315 3°3.96 77.7 13.7 71.4 10.4
2002-11-27 08:50:53 51°21.32 3°3.982 77.7 13.6 71.3 10.5
2002-11-27 08:50:59 51°21.327 3°4.016 77.8 13.6 71.5 10.5
2002-11-27 08:51:04 51°21.333 3°4.045 77.8 13.6 71.5 10.4
2002-11-27 08:51:09 51°21.339 3°4.073 77.7 13.7 71.2 10.4
2002-11-27 08:51:13 51°21.345 3°4.096 76.8 13.7 70.5 10.4
2002-11-27 08:51:19 51°21.352 3°4.13 76.7 13.7 70.2 10.4
2002-11-27 08:51:24 51°21.359 3°4.158 76.3 13.7 69.8 10.4
2002-11-27 08:51:29 51°21.365 3°4.187 76.8 13.6 70 10.4
2002-11-27 08:51:33 51°21.37 3°4.209 76.7 13.6 70 10.4
2002-11-27 08:51:39 51°21.378 3°4.244 77 13.6 70.2 10.5
2002-11-27 08:51:44 51°21.384 3°4.272 76.7 13.6 70.2 10.4
2002-11-27 08:51:49 51°21.39 3°4.301 76.7 13.7 70.5 10.1
2002-11-27 08:51:53 51°21.396 3°4.323 76.7 13.6 70.2 10.4
2002-11-27 08:51:59 51°21.402 3°4.357 77.3 13.6 71 10.5
2002-11-27 08:52:04 51°21.408 3°4.386 77.5 13.6 71.2 10.5
2002-11-27 08:52:09 51°21.415 3°4.415 77 13.7 71.4 10.5
2002-11-27 08:52:13 51°21.42 3°4.438 76.5 13.7 70.7 10.5
2002-11-27 08:52:19 51°21.427 3°4.472 77 13.7 70.8 10.6
2002-11-27 08:52:24 51°21.433 3°4.5 77.2 13.5 71.1 10.6
2002-11-27 08:52:29 51°21.439 3°4.529 77.5 13.6 71.3 10.6
2002-11-27 08:52:33 51°21.443 3°4.552 78 13.6 71.9 10.6
2002-11-27 08:52:39 51°21.45 3°4.587 78 13.6 72.4 10.5
2002-11-27 08:52:44 51°21.456 3°4.615 77.7 13.6 72.3 10.6
2002-11-27 08:52:49 51°21.462 3°4.643 77.5 13.6 72.1 10.6
2002-11-27 08:52:53 51°21.467 3°4.666 76.7 13.6 71.1 10.6
2002-11-27 08:52:59 51°21.474 3°4.7 76.3 13.6 70.6 10.6
2002-11-27 08:53:04 51°21.481 3°4.729 76.5 13.6 70.8 10.5
2002-11-27 08:53:09 51°21.487 3°4.757 77 13.6 71.2 10.7
2002-11-27 08:53:13 51°21.491 3°4.78 77.7 13.5 72 10.7
2002-11-27 08:53:19 51°21.498 3°4.814 78 13.5 72.1 10.7
2002-11-27 08:53:23 51°21.502 3°4.837 78.5 13.5 72.9 10.7
2002-11-27 08:53:29 51°21.509 3°4.871 78.2 13.5 73 -999
2002-11-27 08:53:33 51°21.513 3°4.894 77.5 13.5 72.4 10.6
2002-11-27 08:53:39 51°21.52 3°4.928 77.2 13.5 71.5 10.5
2002-11-27 08:53:44 51°21.527 3°4.956 76.7 13.5 71.2 10.7
2002-11-27 08:53:49 51°21.533 3°4.985 76.3 13.6 70.6 10.7
2002-11-27 08:53:53 51°21.538 3°5.008 76.5 13.6 70.6 10.7
2002-11-27 08:53:59 51°21.545 3°5.042 77 13.6 71.1 10.8
2002-11-27 08:54:04 51°21.551 3°5.071 77.2 13.6 71.5 10.7
2002-11-27 08:54:09 51°21.556 3°5.1 78.3 13.6 71.9 10.8
2002-11-27 08:54:13 51°21.561 3°5.122 78.5 13.5 72.5 10.8
2002-11-27 08:54:19 51°21.567 3°5.157 78.8 13.5 73 10.8
2002-11-27 08:54:24 51°21.573 3°5.186 78.3 13.5 72.9 10.8
2002-11-27 08:54:29 51°21.578 3°5.214 77.5 13.6 72.5 10.7
2002-11-27 08:54:33 51°21.583 3°5.237 76.8 13.5 70.9 10.8
2002-11-27 08:54:39 51°21.591 3°5.271 76.5 13.5 71.1 10.8
2002-11-27 08:54:44 51°21.597 3°5.299 76.3 13.5 71 10.8
2002-11-27 08:54:49 51°21.603 3°5.327 77 13.5 71.7 10.7
2002-11-27 08:54:53 51°21.608 3°5.35 76.8 13.5 71.3 10.7
2002-11-27 08:54:59 51°21.615 3°5.384 77 13.6 71.7 10.7
2002-11-27 08:55:04 51°21.62 3°5.413 77.5 13.5 71.9 10.7
2002-11-27 08:55:09 51°21.626 3°5.441 77.8 13.5 72.2 10.7
2002-11-27 08:55:13 51°21.63 3°5.464 78 13.5 72.3 10.8
2002-11-27 08:55:19 51°21.637 3°5.499 78 13.5 72.7 10.7
2002-11-27 08:55:24 51°21.642 3°5.527 77.5 13.5 72.5 10.8
2002-11-27 08:55:29 51°21.648 3°5.556 77.5 13.5 72.1 10.7
2002-11-27 08:55:33 51°21.653 3°5.578 76.8 13.5 71.4 10.8
2002-11-27 08:55:39 51°21.66 3°5.612 77.2 13.5 71.2 10.8
2002-11-27 08:55:44 51°21.665 3°5.64 77.5 13.4 71.8 10.8
2002-11-27 08:55:49 51°21.671 3°5.669 77 13.4 72.2 10.8
2002-11-27 08:55:53 51°21.676 3°5.691 76.3 13.4 71.7 10.9
2002-11-27 08:55:59 51°21.683 3°5.725 77 13.4 71.9 10.7
2002-11-27 08:56:04 51°21.689 3°5.754 77 13.4 71.8 10.6
2002-11-27 08:56:09 51°21.694 3°5.782 77.2 13.4 72 10.8
2002-11-27 08:56:13 51°21.699 3°5.805 77.2 13.4 72 10.1
2002-11-27 08:56:19 51°21.706 3°5.839 77 13.5 72.1 10.9
2002-11-27 08:56:24 51°21.711 3°5.867 77.2 13.5 72 10.9
2002-11-27 08:56:29 51°21.717 3°5.895 77 13.4 71.9 10.8
2002-11-27 08:56:33 51°21.722 3°5.918 77 13.4 71.7 10.9
2002-11-27 08:56:39 51°21.729 3°5.952 76.7 13.4 71.6 10.8
2002-11-27 08:56:44 51°21.735 3°5.981 77 13.5 71.9 10.9
2002-11-27 08:56:49 51°21.741 3°6.009 76.2 13.6 71.8 10.7
2002-11-27 08:56:53 51°21.746 3°6.032 76.7 13.6 71.1 11
2002-11-27 08:56:59 51°21.753 3°6.066 77.3 13.5 71.4 11
2002-11-27 08:57:04 51°21.758 3°6.095 77.5 13.5 72.5 10.9
2002-11-27 08:57:09 51°21.763 3°6.124 78.5 13.6 73.1 11
2002-11-27 08:57:13 51°21.767 3°6.147 79.3 13.6 73.8 10.9
2002-11-27 08:57:19 51°21.773 3°6.182 80 13.5 74.7 11.1
2002-11-27 08:57:23 51°21.776 3°6.205 80.5 13.5 76 11
2002-11-27 08:57:29 51°21.782 3°6.24 80.3 13.6 76.1 11
2002-11-27 08:57:33 51°21.786 3°6.263 80.2 13.5 75.7 11
2002-11-27 08:57:39 51°21.791 3°6.298 80.8 13.5 75.9 10.8
2002-11-27 08:57:44 51°21.795 3°6.327 80.7 13.5 75.7 11.2
2002-11-27 08:57:49 51°21.8 3°6.356 80.8 13.5 76.1 11.1
2002-11-27 08:57:53 51°21.804 3°6.379 81 13.5 76.2 11.2
2002-11-27 08:57:59 51°21.809 3°6.414 81.7 13.5 76.8 11
2002-11-27 08:58:04 51°21.813 3°6.443 81.5 13.5 76.6 11.2
2002-11-27 08:58:09 51°21.818 3°6.472 80.8 13.5 76.6 11.2
2002-11-27 08:58:13 51°21.821 3°6.495 80.7 13.5 76 11.2
2002-11-27 08:58:19 51°21.827 3°6.53 80.5 13.5 76 11
2002-11-27 08:58:24 51°21.832 3°6.559 79.8 13.5 75.3 11.2
2002-11-27 08:58:29 51°21.836 3°6.587 80.3 13.5 75.6 11.1
2002-11-27 08:58:33 51°21.84 3°6.61 81 13.4 76 11.2
2002-11-27 08:58:39 51°21.845 3°6.645 80.7 13.4 76.1 11.1
2002-11-27 08:58:44 51°21.85 3°6.675 80.5 13.5 75.7 11.1
2002-11-27 08:58:49 51°21.855 3°6.703 80 13.5 75.6 11.2
2002-11-27 08:58:53 51°21.858 3°6.726 79.8 13.4 75.2 11.2
2002-11-27 08:58:59 51°21.864 3°6.76 80.5 13.3 75.5 11
2002-11-27 08:59:04 51°21.868 3°6.789 81.3 13.3 76.3 11.2
2002-11-27 08:59:09 51°21.873 3°6.818 81 13.4 76.3 11.1
2002-11-27 08:59:13 51°21.877 3°6.842 80.3 13.5 76.1 11
2002-11-27 08:59:19 51°21.882 3°6.876 80.3 13.5 75.2 10.9
2002-11-27 08:59:24 51°21.887 3°6.904 80 13.4 75.2 11.3
2002-11-27 08:59:29 51°21.892 3°6.933 79.7 13.3 74.7 11.2
2002-11-27 08:59:33 51°21.896 3°6.956 79.8 13.3 74.8 11
2002-11-27 08:59:39 51°21.902 3°6.99 79.3 13.4 74.2 11.2
2002-11-27 08:59:44 51°21.906 3°7.019 79.3 13.4 74.3 11.2
2002-11-27 08:59:49 51°21.911 3°7.047 79.7 13.3 74.8 11.3
2002-11-27 08:59:53 51°21.915 3°7.07 79.3 13.3 74.8 11.4
2002-11-27 08:59:59 51°21.921 3°7.104 79.7 13.3 74.7 11.3
2002-11-27 09:00:04 51°21.926 3°7.132 80.2 13.3 75.2 11.4
2002-11-27 09:00:09 51°21.93 3°7.161 80.3 13.3 75.4 11.4
2002-11-27 09:00:13 51°21.933 3°7.184 81 13.2 76.4 11.4
2002-11-27 09:00:19 51°21.938 3°7.218 81.5 13.3 77 11.1
2002-11-27 09:00:24 51°21.942 3°7.247 81.2 13.4 76.8 11.1
2002-11-27 09:00:29 51°21.947 3°7.275 82 13.3 77.1 11.4
2002-11-27 09:00:33 51°21.95 3°7.298 82.3 13.3 77.8 11.3
2002-11-27 09:00:39 51°21.954 3°7.333 82.2 13.3 77.9 11.4
2002-11-27 09:00:44 51°21.958 3°7.362 82.5 13.3 78.1 11.3
2002-11-27 09:00:49 51°21.962 3°7.391 82.8 13.3 78.6 11.4
2002-11-27 09:00:53 51°21.965 3°7.414 82.2 13.4 78.2 11.1
2002-11-27 09:00:59 51°21.97 3°7.448 82 13.3 77.6 11.1
2002-11-27 09:01:04 51°21.974 3°7.477 82.3 13.2 78 -999
2002-11-27 09:01:09 51°21.977 3°7.506 82.5 13.2 77.9 11.5
2002-11-27 09:01:13 51°21.981 3°7.529 82.5 13.3 78.1 11.6
2002-11-27 09:01:19 51°21.985 3°7.563 82.8 13.4 78.3 11.6
2002-11-27 09:01:24 51°21.989 3°7.593 83 13.4 78.9 11.5
2002-11-27 09:01:29 51°21.992 3°7.621 82.5 13.4 78.5 11.5
2002-11-27 09:01:33 51°21.995 3°7.644 82.5 13.3 78.4 10.9
2002-11-27 09:01:39 51°22 3°7.679 82.3 13.3 78.2 11.5
2002-11-27 09:01:44 51°22.004 3°7.708 81.8 13.4 77.8 11.5
2002-11-27 09:01:49 51°22.008 3°7.737 81.3 13.4 77.3 11.4
2002-11-27 09:01:53 51°22.011 3°7.76 81.8 13.4 77.5 11.2
2002-11-27 09:01:59 51°22.016 3°7.795 82.5 13.4 78.1 11.4
2002-11-27 09:02:03 51°22.019 3°7.818 82.8 13.4 78.4 11.3
2002-11-27 09:02:09 51°22.023 3°7.853 83 13.3 78.7 11.5
2002-11-27 09:02:13 51°22.026 3°7.876 82.7 13.3 78.7 11.4
2002-11-27 09:02:19 51°22.029 3°7.911 82.5 13.4 78.6 11.4
2002-11-27 09:02:24 51°22.033 3°7.941 81.8 13.4 77.8 11.4
2002-11-27 09:02:29 51°22.037 3°7.97 82 13.4 77.8 11.4
2002-11-27 09:02:33 51°22.041 3°7.993 81.7 13.4 77.7 11.5
2002-11-27 09:02:39 51°22.045 3°8.027 81.8 13.4 77.8 11.5
2002-11-27 09:02:44 51°22.049 3°8.056 82.2 13.3 77.9 11.2
2002-11-27 09:02:49 51°22.053 3°8.085 82.2 13.3 78.1 11.5
2002-11-27 09:02:53 51°22.056 3°8.109 82.2 13.3 78 11.2
2002-11-27 09:02:59 51°22.061 3°8.143 81.5 13.4 77.7 11.5
2002-11-27 09:03:04 51°22.065 3°8.172 81.5 13.4 77.4 11.7
2002-11-27 09:03:09 51°22.069 3°8.201 81.2 13.4 77.1 11.6
2002-11-27 09:03:13 51°22.072 3°8.224 81 13.4 77.4 11.7
2002-11-27 09:03:19 51°22.078 3°8.258 81 13.3 76.4 11.6
2002-11-27 09:03:24 51°22.081 3°8.286 81.8 13.2 77.7 11.5
2002-11-27 09:03:29 51°22.085 3°8.315 82.3 13.2 77.7 11.8
2002-11-27 09:03:33 51°22.088 3°8.338 82.5 13.3 78.9 11.8
2002-11-27 09:03:39 51°22.093 3°8.373 82 13.3 78 11.8
2002-11-27 09:03:44 51°22.096 3°8.401 82.5 13.3 78.8 11.7
2002-11-27 09:03:49 51°22.1 3°8.43 82 13.2 77.8 11.8
2002-11-27 09:03:53 51°22.103 3°8.454 82.3 13.2 78.4 11.8
2002-11-27 09:03:59 51°22.107 3°8.489 82.7 13.3 78.5 11.8
2002-11-27 09:04:03 51°22.109 3°8.512 83.3 13.3 79.5 11.7
2002-11-27 09:04:09 51°22.113 3°8.547 82.8 13.3 79.5 11.9
2002-11-27 09:04:13 51°22.116 3°8.57 83.2 13.2 79 11.9
2002-11-27 09:04:19 51°22.121 3°8.604 83 13.2 79.3 11.9
2002-11-27 09:04:24 51°22.124 3°8.633 82.3 13.2 78.5 11.9
2002-11-27 09:04:29 51°22.128 3°8.662 82 13.3 78.5 11.5
2002-11-27 09:04:33 51°22.131 3°8.685 81.8 13.3 77.8 11.9
2002-11-27 09:04:39 51°22.135 3°8.719 82.8 13.2 78.9 11.9
2002-11-27 09:04:44 51°22.139 3°8.748 82.7 13.2 78.7 11.9
2002-11-27 09:04:49 51°22.142 3°8.777 83 13.2 79.3 11.8
2002-11-27 09:04:53 51°22.146 3°8.8 82.7 13.2 78.7 11.8
2002-11-27 09:04:59 51°22.15 3°8.834 82.2 13.2 78.7 11.8
2002-11-27 09:05:04 51°22.154 3°8.861 82 13.2 77.9 11.9
2002-11-27 09:05:09 51°22.158 3°8.889 81.8 13.2 78.1 11.8
2002-11-27 09:05:13 51°22.161 3°8.912 82.2 13.2 78 12.1
2002-11-27 09:05:19 51°22.165 3°8.947 82.7 13.2 78.6 12.1
2002-11-27 09:05:24 51°22.168 3°8.977 82.8 13.3 78.7 12.2
2002-11-27 09:05:29 51°22.172 3°9.006 83.2 13.3 79.1 12.2
2002-11-27 09:05:33 51°22.175 3°9.028 82.5 13.3 78.8 11.8
2002-11-27 09:05:39 51°22.18 3°9.062 82 13.3 78 12.3
2002-11-27 09:05:44 51°22.184 3°9.091 81.8 13.2 77.5 12.2
2002-11-27 09:05:49 51°22.188 3°9.119 82.2 13.2 77.4 12.1
2002-11-27 09:05:53 51°22.191 3°9.142 82.3 13.1 77.9 11.6
2002-11-27 09:05:59 51°22.195 3°9.176 83 13.1 78.5 11.8
2002-11-27 09:06:04 51°22.199 3°9.205 82.5 13.2 78.6 12.4
2002-11-27 09:06:09 51°22.203 3°9.233 82 13.1 77.9 12.4
2002-11-27 09:06:13 51°22.206 3°9.255 82.3 13.1 78 12.4
2002-11-27 09:06:19 51°22.211 3°9.289 81.5 13.1 77.4 12.4
2002-11-27 09:06:24 51°22.215 3°9.317 81.7 13.1 77.4 12.3
2002-11-27 09:06:29 51°22.219 3°9.346 81.8 13.1 77.3 12.2
2002-11-27 09:06:33 51°22.223 3°9.368 81.7 13.1 77.5 12.5
2002-11-27 09:06:39 51°22.227 3°9.402 82 13.1 77.4 12.6
2002-11-27 09:06:44 51°22.231 3°9.431 82.7 13.1 78.1 12.7